sensor_id;sensor_type;location;lat;lon;timestamp;P1;durP1;ratioP1;P2;durP2;ratioP2
52272;SDS011;38227;50.942;4.016;2023-04-25T15:08:10;2.03;;;1.35;;
52272;SDS011;38227;50.942;4.016;2023-04-25T15:10:41;1.95;;;0.80;;
52272;SDS011;38227;50.942;4.016;2023-04-25T15:13:11;2.45;;;0.93;;
52272;SDS011;38227;50.942;4.016;2023-04-25T15:15:42;1.92;;;0.90;;
52272;SDS011;38227;50.942;4.016;2023-04-25T15:18:17;1.58;;;0.65;;
52272;SDS011;38227;50.942;4.016;2023-04-25T15:20:50;2.00;;;0.85;;
52272;SDS011;38227;50.942;4.016;2023-04-25T15:23:19;5.80;;;1.55;;
52272;SDS011;38227;50.942;4.016;2023-04-25T15:25:59;1.23;;;1.00;;
52272;SDS011;38227;50.942;4.016;2023-04-25T15:28:30;2.45;;;0.85;;
52272;SDS011;38227;50.942;4.016;2023-04-25T15:31:01;1.55;;;0.82;;
52272;SDS011;38227;50.942;4.016;2023-04-25T15:33:31;3.42;;;0.70;;
52272;SDS011;38227;50.942;4.016;2023-04-25T15:36:02;2.55;;;1.00;;
52272;SDS011;38227;50.942;4.016;2023-04-25T15:38:31;1.80;;;0.77;;
52272;SDS011;38227;50.942;4.016;2023-04-25T15:41:00;0.80;;;0.43;;
52272;SDS011;38227;50.942;4.016;2023-04-25T15:43:31;1.10;;;0.50;;
52272;SDS011;38227;50.942;4.016;2023-04-25T15:46:02;1.40;;;0.73;;
52272;SDS011;38227;50.942;4.016;2023-04-25T15:48:31;2.58;;;0.88;;
52272;SDS011;38227;50.942;4.016;2023-04-25T15:51:00;1.75;;;0.60;;
52272;SDS011;38227;50.942;4.016;2023-04-25T15:53:37;1.33;;;0.55;;
52272;SDS011;38227;50.942;4.016;2023-04-25T15:56:14;0.82;;;0.55;;
52272;SDS011;38227;50.942;4.016;2023-04-25T15:58:46;2.75;;;0.80;;
52272;SDS011;38227;50.942;4.016;2023-04-25T16:01:16;1.62;;;0.82;;
52272;SDS011;38227;50.942;4.016;2023-04-25T16:03:49;2.67;;;0.70;;
52272;SDS011;38227;50.942;4.016;2023-04-25T16:06:19;2.37;;;1.00;;
52272;SDS011;38227;50.942;4.016;2023-04-25T16:08:50;1.60;;;0.70;;
52272;SDS011;38227;50.942;4.016;2023-04-25T16:11:19;1.35;;;0.80;;
52272;SDS011;38227;50.942;4.016;2023-04-25T16:13:50;2.53;;;0.85;;
52272;SDS011;38227;50.942;4.016;2023-04-25T16:16:17;2.95;;;0.85;;
52272;SDS011;38227;50.942;4.016;2023-04-25T16:18:46;2.03;;;1.05;;
52272;SDS011;38227;50.942;4.016;2023-04-25T16:21:15;3.30;;;0.90;;
52272;SDS011;38227;50.942;4.016;2023-04-25T16:23:46;3.28;;;0.90;;
52272;SDS011;38227;50.942;4.016;2023-04-25T16:26:16;1.10;;;0.60;;
52272;SDS011;38227;50.942;4.016;2023-04-25T16:28:46;1.85;;;0.70;;
52272;SDS011;38227;50.942;4.016;2023-04-25T16:31:14;1.92;;;0.70;;
52272;SDS011;38227;50.942;4.016;2023-04-25T16:33:44;2.80;;;0.90;;
52272;SDS011;38227;50.942;4.016;2023-04-25T16:36:14;1.67;;;0.80;;
52272;SDS011;38227;50.942;4.016;2023-04-25T16:38:44;1.62;;;1.00;;
52272;SDS011;38227;50.942;4.016;2023-04-25T16:41:16;1.75;;;0.70;;
52272;SDS011;38227;50.942;4.016;2023-04-25T16:43:47;4.72;;;1.15;;
52272;SDS011;38227;50.942;4.016;2023-04-25T16:46:18;1.85;;;0.93;;
52272;SDS011;38227;50.942;4.016;2023-04-25T16:48:49;2.42;;;0.93;;
52272;SDS011;38227;50.942;4.016;2023-04-25T16:51:20;1.58;;;0.80;;
52272;SDS011;38227;50.942;4.016;2023-04-25T16:53:49;4.30;;;0.90;;
52272;SDS011;38227;50.942;4.016;2023-04-25T16:56:20;1.48;;;0.80;;
52272;SDS011;38227;50.942;4.016;2023-04-25T16:58:58;1.65;;;0.77;;
52272;SDS011;38227;50.942;4.016;2023-04-25T17:01:27;1.30;;;0.75;;
52272;SDS011;38227;50.942;4.016;2023-04-25T17:03:59;1.37;;;0.70;;
52272;SDS011;38227;50.942;4.016;2023-04-25T17:06:29;2.85;;;0.75;;
52272;SDS011;38227;50.942;4.016;2023-04-25T17:09:07;0.65;;;0.60;;
52272;SDS011;38227;50.942;4.016;2023-04-25T17:11:37;2.37;;;0.68;;
52272;SDS011;38227;50.942;4.016;2023-04-25T17:14:11;2.22;;;0.75;;
52272;SDS011;38227;50.942;4.016;2023-04-25T17:16:49;1.83;;;0.93;;
52272;SDS011;38227;50.942;4.016;2023-04-25T17:19:19;2.35;;;0.70;;
52272;SDS011;38227;50.942;4.016;2023-04-25T17:21:49;1.33;;;1.00;;
52272;SDS011;38227;50.942;4.016;2023-04-25T17:24:20;1.65;;;0.90;;
52272;SDS011;38227;50.942;4.016;2023-04-25T17:26:50;3.47;;;0.90;;
52272;SDS011;38227;50.942;4.016;2023-04-25T17:29:28;2.00;;;1.08;;
52272;SDS011;38227;50.942;4.016;2023-04-25T17:31:58;2.45;;;0.82;;
52272;SDS011;38227;50.942;4.016;2023-04-25T17:34:35;1.67;;;0.95;;
52272;SDS011;38227;50.942;4.016;2023-04-25T17:37:08;2.42;;;0.90;;
52272;SDS011;38227;50.942;4.016;2023-04-25T17:39:41;1.35;;;0.50;;
52272;SDS011;38227;50.942;4.016;2023-04-25T17:42:10;0.82;;;0.50;;
52272;SDS011;38227;50.942;4.016;2023-04-25T17:44:40;1.62;;;0.60;;
52272;SDS011;38227;50.942;4.016;2023-04-25T17:47:09;1.00;;;0.70;;
52272;SDS011;38227;50.942;4.016;2023-04-25T17:49:39;1.12;;;0.70;;
52272;SDS011;38227;50.942;4.016;2023-04-25T17:52:09;1.77;;;0.82;;
52272;SDS011;38227;50.942;4.016;2023-04-25T17:54:37;2.60;;;0.70;;
52272;SDS011;38227;50.942;4.016;2023-04-25T17:57:06;2.00;;;0.50;;
52272;SDS011;38227;50.942;4.016;2023-04-25T17:59:39;1.02;;;0.62;;
52272;SDS011;38227;50.942;4.016;2023-04-25T18:02:18;1.77;;;0.90;;
52272;SDS011;38227;50.942;4.016;2023-04-25T18:04:46;2.03;;;0.73;;
52272;SDS011;38227;50.942;4.016;2023-04-25T18:07:16;0.73;;;0.52;;
52272;SDS011;38227;50.942;4.016;2023-04-25T18:09:55;2.20;;;0.70;;
52272;SDS011;38227;50.942;4.016;2023-04-25T18:12:26;1.85;;;0.80;;
52272;SDS011;38227;50.942;4.016;2023-04-25T18:14:55;3.25;;;0.88;;
52272;SDS011;38227;50.942;4.016;2023-04-25T18:17:29;2.47;;;0.67;;
52272;SDS011;38227;50.942;4.016;2023-04-25T18:19:59;1.48;;;0.77;;
52272;SDS011;38227;50.942;4.016;2023-04-25T18:22:32;2.05;;;0.70;;
52272;SDS011;38227;50.942;4.016;2023-04-25T18:25:02;2.42;;;0.77;;
52272;SDS011;38227;50.942;4.016;2023-04-25T18:27:32;1.50;;;0.70;;
52272;SDS011;38227;50.942;4.016;2023-04-25T18:30:03;2.55;;;0.70;;
52272;SDS011;38227;50.942;4.016;2023-04-25T18:32:34;1.48;;;0.80;;
52272;SDS011;38227;50.942;4.016;2023-04-25T18:35:06;0.85;;;0.62;;
52272;SDS011;38227;50.942;4.016;2023-04-25T18:37:37;2.85;;;0.80;;
52272;SDS011;38227;50.942;4.016;2023-04-25T18:40:06;2.45;;;1.02;;
52272;SDS011;38227;50.942;4.016;2023-04-25T18:42:37;0.90;;;0.60;;
52272;SDS011;38227;50.942;4.016;2023-04-25T18:45:05;2.47;;;0.85;;
52272;SDS011;38227;50.942;4.016;2023-04-25T18:47:36;0.82;;;0.60;;
52272;SDS011;38227;50.942;4.016;2023-04-25T18:50:05;2.80;;;0.85;;
52272;SDS011;38227;50.942;4.016;2023-04-25T18:52:36;4.45;;;1.17;;
52272;SDS011;38227;50.942;4.016;2023-04-25T18:55:05;3.03;;;1.02;;
52272;SDS011;38227;50.942;4.016;2023-04-25T18:57:35;1.12;;;0.90;;
52272;SDS011;38227;50.942;4.016;2023-04-25T19:00:03;3.00;;;1.00;;
52272;SDS011;38227;50.942;4.016;2023-04-25T19:02:35;2.15;;;0.90;;
52272;SDS011;38227;50.942;4.016;2023-04-25T19:05:03;0.75;;;0.73;;
52272;SDS011;38227;50.942;4.016;2023-04-25T19:07:34;1.50;;;1.05;;
52272;SDS011;38227;50.942;4.016;2023-04-25T19:10:23;1.37;;;1.00;;
52272;SDS011;38227;50.942;4.016;2023-04-25T19:12:59;3.00;;;1.50;;
52272;SDS011;38227;50.942;4.016;2023-04-25T19:15:29;6.62;;;1.98;;
52272;SDS011;38227;50.942;4.016;2023-04-25T19:18:06;6.57;;;1.80;;
52272;SDS011;38227;50.942;4.016;2023-04-25T19:20:36;3.92;;;1.67;;
52272;SDS011;38227;50.942;4.016;2023-04-25T19:23:12;12.25;;;3.35;;
52272;SDS011;38227;50.942;4.016;2023-04-25T19:25:41;6.57;;;2.30;;
52272;SDS011;38227;50.942;4.016;2023-04-25T19:28:15;5.82;;;1.50;;
52272;SDS011;38227;50.942;4.016;2023-04-25T19:30:52;8.25;;;2.20;;
52272;SDS011;38227;50.942;4.016;2023-04-25T19:33:24;3.33;;;1.50;;
52272;SDS011;38227;50.942;4.016;2023-04-25T19:36:04;3.97;;;1.95;;
52272;SDS011;38227;50.942;4.016;2023-04-25T19:38:32;4.95;;;2.17;;
52272;SDS011;38227;50.942;4.016;2023-04-25T19:41:01;5.85;;;1.50;;
52272;SDS011;38227;50.942;4.016;2023-04-25T19:43:38;4.18;;;1.35;;
52272;SDS011;38227;50.942;4.016;2023-04-25T19:46:07;7.10;;;1.65;;
52272;SDS011;38227;50.942;4.016;2023-04-25T19:48:44;6.45;;;1.80;;
52272;SDS011;38227;50.942;4.016;2023-04-25T19:51:12;8.52;;;2.55;;
52272;SDS011;38227;50.942;4.016;2023-04-25T19:53:42;12.75;;;3.08;;
52272;SDS011;38227;50.942;4.016;2023-04-25T19:56:11;13.38;;;3.20;;
52272;SDS011;38227;50.942;4.016;2023-04-25T19:58:52;8.40;;;2.70;;
52272;SDS011;38227;50.942;4.016;2023-04-25T20:01:29;9.02;;;2.87;;
52272;SDS011;38227;50.942;4.016;2023-04-25T20:03:58;6.35;;;2.00;;
52272;SDS011;38227;50.942;4.016;2023-04-25T20:06:27;2.78;;;1.60;;
52272;SDS011;38227;50.942;4.016;2023-04-25T20:08:59;2.58;;;1.35;;
52272;SDS011;38227;50.942;4.016;2023-04-25T20:11:34;6.17;;;1.50;;
52272;SDS011;38227;50.942;4.016;2023-04-25T20:14:05;3.62;;;1.60;;
52272;SDS011;38227;50.942;4.016;2023-04-25T20:16:34;2.53;;;1.30;;
52272;SDS011;38227;50.942;4.016;2023-04-25T20:19:04;3.60;;;1.27;;
52272;SDS011;38227;50.942;4.016;2023-04-25T20:21:34;5.55;;;1.95;;
52272;SDS011;38227;50.942;4.016;2023-04-25T20:24:02;1.77;;;1.20;;
52272;SDS011;38227;50.942;4.016;2023-04-25T20:26:33;3.62;;;1.37;;
52272;SDS011;38227;50.942;4.016;2023-04-25T20:29:10;3.80;;;1.55;;
52272;SDS011;38227;50.942;4.016;2023-04-25T20:31:43;1.60;;;1.10;;
52272;SDS011;38227;50.942;4.016;2023-04-25T20:34:14;3.95;;;1.52;;
52272;SDS011;38227;50.942;4.016;2023-04-25T20:36:47;3.08;;;1.27;;
52272;SDS011;38227;50.942;4.016;2023-04-25T20:39:16;3.53;;;1.50;;
52272;SDS011;38227;50.942;4.016;2023-04-25T20:41:46;2.78;;;1.60;;
52272;SDS011;38227;50.942;4.016;2023-04-25T20:44:23;2.75;;;1.70;;
52272;SDS011;38227;50.942;4.016;2023-04-25T20:46:52;2.33;;;1.48;;
52272;SDS011;38227;50.942;4.016;2023-04-25T20:49:23;3.55;;;1.80;;
52272;SDS011;38227;50.942;4.016;2023-04-25T20:51:53;3.20;;;1.75;;
52272;SDS011;38227;50.942;4.016;2023-04-25T20:54:23;3.55;;;2.00;;
52272;SDS011;38227;50.942;4.016;2023-04-25T20:56:53;2.85;;;1.70;;
52272;SDS011;38227;50.942;4.016;2023-04-25T20:59:24;4.22;;;2.12;;
52272;SDS011;38227;50.942;4.016;2023-04-25T21:01:54;3.80;;;2.25;;
52272;SDS011;38227;50.942;4.016;2023-04-25T21:04:31;3.67;;;2.05;;
52272;SDS011;38227;50.942;4.016;2023-04-25T21:06:59;5.45;;;2.22;;
52272;SDS011;38227;50.942;4.016;2023-04-25T21:09:29;3.22;;;2.10;;
52272;SDS011;38227;50.942;4.016;2023-04-25T21:12:09;7.43;;;2.58;;
52272;SDS011;38227;50.942;4.016;2023-04-25T21:14:38;5.22;;;2.60;;
52272;SDS011;38227;50.942;4.016;2023-04-25T21:17:08;7.28;;;2.50;;
52272;SDS011;38227;50.942;4.016;2023-04-25T21:19:39;5.80;;;2.87;;
52272;SDS011;38227;50.942;4.016;2023-04-25T21:22:07;7.90;;;3.60;;
52272;SDS011;38227;50.942;4.016;2023-04-25T21:24:37;8.07;;;3.53;;
52272;SDS011;38227;50.942;4.016;2023-04-25T21:27:08;5.20;;;2.50;;
52272;SDS011;38227;50.942;4.016;2023-04-25T21:29:37;4.53;;;2.58;;
52272;SDS011;38227;50.942;4.016;2023-04-25T21:32:07;6.82;;;2.75;;
52272;SDS011;38227;50.942;4.016;2023-04-25T21:34:37;6.10;;;2.97;;
52272;SDS011;38227;50.942;4.016;2023-04-25T21:37:14;8.50;;;3.20;;
52272;SDS011;38227;50.942;4.016;2023-04-25T21:39:42;7.15;;;3.62;;
52272;SDS011;38227;50.942;4.016;2023-04-25T21:42:13;10.13;;;4.12;;
52272;SDS011;38227;50.942;4.016;2023-04-25T21:44:51;12.50;;;4.62;;
52272;SDS011;38227;50.942;4.016;2023-04-25T21:47:28;8.55;;;3.90;;
52272;SDS011;38227;50.942;4.016;2023-04-25T21:49:57;8.50;;;3.12;;
52272;SDS011;38227;50.942;4.016;2023-04-25T21:52:29;5.72;;;2.67;;
52272;SDS011;38227;50.942;4.016;2023-04-25T21:54:58;4.43;;;2.72;;
52272;SDS011;38227;50.942;4.016;2023-04-25T21:57:30;6.12;;;2.50;;
52272;SDS011;38227;50.942;4.016;2023-04-25T22:00:07;7.72;;;3.83;;
52272;SDS011;38227;50.942;4.016;2023-04-25T22:02:45;5.18;;;2.90;;
52272;SDS011;38227;50.942;4.016;2023-04-25T22:05:18;4.18;;;2.58;;
52272;SDS011;38227;50.942;4.016;2023-04-25T22:07:51;6.75;;;3.70;;
52272;SDS011;38227;50.942;4.016;2023-04-25T22:10:21;9.32;;;3.90;;
52272;SDS011;38227;50.942;4.016;2023-04-25T22:12:51;7.55;;;3.58;;
52272;SDS011;38227;50.942;4.016;2023-04-25T22:15:27;6.03;;;3.08;;
52272;SDS011;38227;50.942;4.016;2023-04-25T22:17:57;4.80;;;2.78;;
52272;SDS011;38227;50.942;4.016;2023-04-25T22:20:34;4.82;;;2.90;;
52272;SDS011;38227;50.942;4.016;2023-04-25T22:23:03;4.55;;;2.72;;
52272;SDS011;38227;50.942;4.016;2023-04-25T22:25:32;5.60;;;2.95;;
52272;SDS011;38227;50.942;4.016;2023-04-25T22:28:03;7.18;;;3.17;;
52272;SDS011;38227;50.942;4.016;2023-04-25T22:30:32;7.75;;;3.12;;
52272;SDS011;38227;50.942;4.016;2023-04-25T22:33:02;6.05;;;3.12;;
52272;SDS011;38227;50.942;4.016;2023-04-25T22:35:32;7.37;;;3.08;;
52272;SDS011;38227;50.942;4.016;2023-04-25T22:38:03;7.80;;;3.40;;
52272;SDS011;38227;50.942;4.016;2023-04-25T22:40:32;6.07;;;2.87;;
52272;SDS011;38227;50.942;4.016;2023-04-25T22:43:12;6.47;;;3.40;;
52272;SDS011;38227;50.942;4.016;2023-04-25T22:45:41;4.35;;;2.72;;
52272;SDS011;38227;50.942;4.016;2023-04-25T22:48:12;5.60;;;3.00;;
52272;SDS011;38227;50.942;4.016;2023-04-25T22:50:41;5.62;;;2.90;;
52272;SDS011;38227;50.942;4.016;2023-04-25T22:53:13;5.15;;;3.00;;
52272;SDS011;38227;50.942;4.016;2023-04-25T22:55:42;4.75;;;2.55;;
52272;SDS011;38227;50.942;4.016;2023-04-25T22:58:21;5.20;;;2.87;;
52272;SDS011;38227;50.942;4.016;2023-04-25T23:00:51;7.47;;;3.15;;
52272;SDS011;38227;50.942;4.016;2023-04-25T23:03:20;5.50;;;2.85;;
52272;SDS011;38227;50.942;4.016;2023-04-25T23:05:49;10.63;;;3.40;;
52272;SDS011;38227;50.942;4.016;2023-04-25T23:08:20;8.68;;;3.50;;
52272;SDS011;38227;50.942;4.016;2023-04-25T23:10:50;6.95;;;2.80;;
52272;SDS011;38227;50.942;4.016;2023-04-25T23:13:32;5.47;;;3.20;;
52272;SDS011;38227;50.942;4.016;2023-04-25T23:16:11;5.45;;;3.10;;
52272;SDS011;38227;50.942;4.016;2023-04-25T23:18:41;5.43;;;2.90;;
52272;SDS011;38227;50.942;4.016;2023-04-25T23:21:10;7.03;;;2.83;;
52272;SDS011;38227;50.942;4.016;2023-04-25T23:23:41;4.43;;;2.85;;
52272;SDS011;38227;50.942;4.016;2023-04-25T23:26:11;5.25;;;3.10;;
52272;SDS011;38227;50.942;4.016;2023-04-25T23:28:43;6.35;;;2.97;;
52272;SDS011;38227;50.942;4.016;2023-04-25T23:31:13;5.53;;;2.65;;
52272;SDS011;38227;50.942;4.016;2023-04-25T23:33:42;5.10;;;2.87;;
52272;SDS011;38227;50.942;4.016;2023-04-25T23:36:19;5.47;;;2.70;;
52272;SDS011;38227;50.942;4.016;2023-04-25T23:38:49;6.95;;;3.00;;
52272;SDS011;38227;50.942;4.016;2023-04-25T23:41:27;5.12;;;3.08;;
52272;SDS011;38227;50.942;4.016;2023-04-25T23:43:56;6.22;;;3.08;;
52272;SDS011;38227;50.942;4.016;2023-04-25T23:46:36;8.13;;;3.65;;
52272;SDS011;38227;50.942;4.016;2023-04-25T23:49:08;5.30;;;2.95;;
52272;SDS011;38227;50.942;4.016;2023-04-25T23:51:45;5.90;;;3.25;;
52272;SDS011;38227;50.942;4.016;2023-04-25T23:54:16;5.25;;;2.78;;
52272;SDS011;38227;50.942;4.016;2023-04-25T23:56:52;4.70;;;2.60;;
52272;SDS011;38227;50.942;4.016;2023-04-25T23:59:20;6.47;;;2.30;;
